Time;durP1;ratioP1;P1;durP2;ratioP2;P2;SDS_P1;SDS_P2;PMS_P1;PMS_P2;Temp;Humidity;BMP_temperature;BMP_pressure;BME280_temperature;BME280_humidity;BME280_pressure;Samples;Min_cycle;Max_cycle;Signal;HPM_P1;HPM_P2
2023/09/07 00:01:36;;;;;;;17.23;8.17;;;21.20;99.90;;;21.61;61.67;95422.78;5038026;28;20452;-61
2023/09/07 00:04:06;;;;;;;20.40;8.60;;;21.20;99.90;;;21.61;61.93;95425.47;5044277;28;20541;-61
2023/09/07 00:06:34;;;;;;;13.47;9.70;;;21.20;99.90;;;21.59;61.67;95420.31;5038232;28;20453;-60
2023/09/07 00:09:02;;;;;;;11.10;9.37;;;21.10;99.80;;;21.59;62.32;95416.81;5039606;28;20481;-60
2023/09/07 00:11:29;;;;;;;10.10;8.10;;;21.10;99.80;;;21.58;62.46;95415.13;5037952;28;20476;-62
2023/09/07 00:13:59;;;;;;;17.93;7.73;;;21.10;99.80;;;21.57;62.17;95418.88;5042721;28;20472;-61
2023/09/07 00:16:26;;;;;;;12.80;8.47;;;21.10;99.80;;;21.57;61.85;95414.31;5033550;28;20912;-61
2023/09/07 00:18:53;;;;;;;8.53;7.57;;;21.10;99.80;;;21.57;62.15;95418.88;5035808;28;20469;-60
2023/09/07 00:21:21;;;;;;;11.93;8.00;;;21.10;99.80;;;21.56;61.92;95418.00;5040231;28;20472;-60
2023/09/07 00:23:48;;;;;;;17.73;7.57;;;21.10;99.80;;;21.54;62.00;95409.34;5037346;28;20510;-60
2023/09/07 00:26:16;;;;;;;12.93;8.97;;;21.10;99.80;;;21.53;61.58;95423.75;5043729;28;20845;-60
2023/09/07 00:28:43;;;;;;;12.63;7.47;;;21.10;99.80;;;21.53;62.02;95422.94;5035820;28;20551;-61
2023/09/07 00:31:11;;;;;;;13.30;8.37;;;21.10;99.80;;;21.50;62.21;95413.44;5032874;28;21034;-61
2023/09/07 00:33:39;;;;;;;10.77;7.70;;;21.10;99.80;;;21.49;61.88;95426.00;5041835;28;20972;-61
2023/09/07 00:36:06;;;;;;;8.43;7.53;;;21.10;99.80;;;21.49;61.68;95417.16;5036440;28;20584;-60
2023/09/07 00:38:33;;;;;;;9.87;8.33;;;21.10;99.80;;;21.48;61.53;95421.63;5037209;28;20468;-61
2023/09/07 00:41:01;;;;;;;10.43;8.30;;;21.00;99.80;;;21.47;61.57;95419.16;5034036;28;21052;-62
2023/09/07 00:43:28;;;;;;;10.63;8.20;;;21.00;99.80;;;21.47;62.09;95413.78;5036840;28;20492;-60
2023/09/07 00:45:55;;;;;;;10.27;7.80;;;21.00;99.80;;;21.44;61.72;95420.38;5040728;28;21046;-61
2023/09/07 00:48:24;;;;;;;10.70;8.70;;;21.00;99.80;;;21.43;62.28;95418.72;5034991;28;20480;-61
2023/09/07 00:50:51;;;;;;;12.03;8.30;;;21.00;99.80;;;21.42;62.02;95413.56;5037566;28;20465;-63
2023/09/07 00:53:18;;;;;;;12.00;8.70;;;21.00;99.90;;;21.41;62.44;95419.91;5036399;28;20471;-62
2023/09/07 00:55:46;;;;;;;13.97;8.53;;;21.00;99.90;;;21.41;62.14;95426.13;5034967;28;20491;-60
2023/09/07 00:58:13;;;;;;;15.87;9.67;;;21.00;99.90;;;21.40;62.58;95416.44;5033310;28;20972;-62
2023/09/07 01:00:40;;;;;;;17.43;8.23;;;21.00;99.90;;;21.38;62.56;95423.00;5038790;28;20472;-61
2023/09/07 01:03:08;;;;;;;13.00;9.30;;;21.00;99.90;;;21.36;62.94;95417.00;5033763;28;20535;-62
2023/09/07 01:05:44;;;;;;;10.13;9.13;;;21.00;99.90;;;21.34;62.96;95414.53;5036847;28;20490;-60
2023/09/07 01:08:17;;;;;;;13.17;8.90;;;20.90;99.90;;;21.33;62.96;95420.88;5037906;28;20454;-62
2023/09/07 01:10:44;;;;;;;11.07;9.63;;;20.90;99.90;;;21.29;63.15;95428.47;5036998;28;20487;-61
2023/09/07 01:13:11;;;;;;;12.60;9.90;;;20.90;99.90;;;21.29;63.43;95419.63;5038805;28;20467;-64
2023/09/07 01:15:39;;;;;;;21.27;8.80;;;20.90;99.90;;;21.28;63.57;95420.66;5038206;28;20460;-62
2023/09/07 01:18:06;;;;;;;10.80;9.70;;;20.90;99.90;;;21.26;63.98;95423.53;5035882;28;20568;-62
2023/09/07 01:20:34;;;;;;;14.70;9.83;;;20.90;99.90;;;21.25;64.17;95421.03;5042697;28;21028;-63
2023/09/07 01:23:02;;;;;;;13.77;9.20;;;20.80;99.90;;;21.23;64.48;95415.88;5034878;28;20476;-62
2023/09/07 01:25:31;;;;;;;19.27;10.40;;;20.80;99.90;;;21.23;64.61;95417.75;5035901;28;20518;-63
2023/09/07 01:27:58;;;;;;;11.13;9.70;;;20.80;99.90;;;21.22;64.32;95421.41;5038964;28;20554;-62
2023/09/07 01:30:28;;;;;;;12.07;10.23;;;20.80;99.90;;;21.23;64.54;95417.75;5038971;28;20471;-62
2023/09/07 01:32:55;;;;;;;13.73;9.50;;;20.80;99.90;;;21.21;64.60;95422.44;5039156;28;20455;-62
2023/09/07 01:35:22;;;;;;;12.17;10.70;;;20.80;99.90;;;21.17;64.86;95423.84;5037633;28;21050;-62
2023/09/07 01:37:49;;;;;;;13.30;10.33;;;20.80;99.90;;;21.14;65.07;95425.88;5035857;28;20544;-60
2023/09/07 01:40:18;;;;;;;10.97;9.87;;;20.80;99.90;;;21.11;65.01;95423.59;5030898;28;20464;-62
2023/09/07 01:42:45;;;;;;;11.53;9.63;;;20.70;99.90;;;21.10;65.25;95421.94;5037422;28;20471;-60
2023/09/07 01:45:13;;;;;;;12.40;9.73;;;20.70;99.90;;;21.07;65.56;95427.69;5036465;28;20491;-60
2023/09/07 01:47:40;;;;;;;16.70;11.97;;;20.70;99.90;;;21.05;65.36;95419.03;5033547;28;20901;-61
2023/09/07 01:50:08;;;;;;;17.80;11.90;;;20.70;99.90;;;21.05;65.03;95415.50;5038345;28;20476;-60
2023/09/07 01:52:35;;;;;;;14.93;11.50;;;20.60;99.90;;;21.03;65.64;95420.22;5036064;28;20880;-60
2023/09/07 01:55:02;;;;;;;12.27;10.97;;;20.60;99.90;;;21.03;65.51;95421.03;5037268;28;20541;-60
2023/09/07 01:57:32;;;;;;;14.87;11.40;;;20.60;99.90;;;21.02;65.64;95419.41;5036338;28;20680;-60
2023/09/07 01:59:59;;;;;;;12.40;10.70;;;20.60;99.90;;;21.02;65.72;95415.88;5032349;28;20472;-61
2023/09/07 02:02:27;;;;;;;19.37;12.77;;;20.60;99.90;;;21.01;65.82;95422.28;5037346;28;20523;-62
2023/09/07 02:04:54;;;;;;;13.40;11.00;;;20.60;99.90;;;21.02;65.85;95423.91;5033631;28;20495;-61
2023/09/07 02:07:21;;;;;;;17.87;11.60;;;20.60;99.90;;;21.00;66.05;95415.25;5039381;28;20479;-59
2023/09/07 02:09:48;;;;;;;15.40;11.97;;;20.60;99.90;;;21.00;65.81;95418.75;5040459;28;20530;-60
2023/09/07 02:12:16;;;;;;;15.93;11.97;;;20.60;99.90;;;21.01;66.11;95417.75;5037413;28;21138;-60
2023/09/07 02:14:44;;;;;;;15.67;11.10;;;20.60;99.90;;;21.00;66.05;95412.59;5035820;28;20484;-60
2023/09/07 02:17:17;;;;;;;13.07;11.50;;;20.60;99.90;;;21.02;66.10;95426.59;5034177;28;21090;-61
2023/09/07 02:19:44;;;;;;;13.23;11.87;;;20.60;99.90;;;21.02;66.18;95422.09;5036901;28;20472;-60
2023/09/07 02:22:11;;;;;;;17.87;11.33;;;20.60;99.90;;;21.00;66.22;95424.09;5038782;28;20457;-60
2023/09/07 02:24:39;;;;;;;13.73;11.80;;;20.60;99.90;;;21.01;66.23;95430.31;5035237;28;20549;-60
2023/09/07 02:27:06;;;;;;;15.60;12.80;;;20.60;99.90;;;21.01;66.21;95435.66;5039457;28;20464;-61
2023/09/07 02:29:33;;;;;;;17.03;11.80;;;20.60;99.90;;;21.00;66.47;95433.97;5041144;28;20752;-61
2023/09/07 02:32:02;;;;;;;13.70;11.23;;;20.60;99.90;;;20.99;66.38;95416.28;5036370;28;20873;-60
2023/09/07 02:34:29;;;;;;;17.73;12.40;;;20.60;99.90;;;20.99;66.35;95424.28;5040947;28;20483;-60
2023/09/07 02:36:56;;;;;;;15.83;12.20;;;20.60;99.90;;;20.97;66.58;95431.69;5036334;28;22180;-60
2023/09/07 02:39:26;;;;;;;13.90;12.37;;;20.60;99.90;;;20.95;66.45;95431.88;5033812;28;20496;-60
2023/09/07 02:41:53;;;;;;;29.20;11.80;;;20.50;99.90;;;20.94;66.67;95424.88;5030446;28;20468;-60
2023/09/07 02:44:20;;;;;;;17.17;11.97;;;20.50;99.90;;;20.92;66.74;95438.44;5034949;28;20570;-59
2023/09/07 02:46:47;;;;;;;16.13;11.97;;;20.50;99.90;;;20.90;66.77;95426.28;5041882;28;20452;-61
2023/09/07 02:49:16;;;;;;;17.40;12.10;;;20.50;99.90;;;20.88;67.14;95430.97;5039137;28;20476;-62
2023/09/07 02:51:44;;;;;;;13.67;12.37;;;20.50;99.90;;;20.86;67.07;95422.31;5031726;28;20510;-61
2023/09/07 02:54:11;;;;;;;19.07;11.53;;;20.40;99.90;;;20.85;67.02;95429.53;5034922;28;20567;-61
2023/09/07 02:56:39;;;;;;;18.57;11.87;;;20.40;99.90;;;20.82;67.36;95421.88;5034519;28;20469;-60
2023/09/07 02:59:06;;;;;;;14.47;12.60;;;20.40;99.90;;;20.82;67.04;95426.38;5034232;28;20997;-61
2023/09/07 03:01:34;;;;;;;15.57;12.20;;;20.40;99.90;;;20.80;67.27;95428.44;5030507;28;20476;-59
2023/09/07 03:04:02;;;;;;;13.47;12.03;;;20.40;99.90;;;20.78;67.61;95428.63;5034791;28;20506;-60
2023/09/07 03:06:32;;;;;;;12.93;11.47;;;20.40;99.90;;;20.77;67.50;95433.16;5032676;28;20473;-60
2023/09/07 03:08:59;;;;;;;15.40;13.03;;;20.40;99.90;;;20.78;67.50;95433.97;5032916;28;20472;-60
2023/09/07 03:14:25;;;;;;;16.90;13.67;;;20.40;99.90;;;20.75;67.81;95437.84;5030492;28;20478;-60
2023/09/07 03:16:54;;;;;;;20.90;15.30;;;20.40;99.90;;;20.75;68.06;95434.34;5044699;28;20480;-60
2023/09/07 03:19:21;;;;;;;36.83;23.67;;;20.40;99.90;;;20.72;67.93;95432.06;5031220;28;20468;-60
2023/09/07 03:21:50;;;;;;;21.00;15.10;;;20.30;99.90;;;20.74;67.87;95438.88;5031852;28;20456;-60
2023/09/07 03:24:17;;;;;;;19.77;13.60;;;20.40;99.90;;;20.73;68.04;95433.72;5035132;28;20687;-61
2023/09/07 03:26:44;;;;;;;23.70;17.60;;;20.30;99.90;;;20.72;68.04;95437.41;5033342;28;20483;-61
2023/09/07 03:29:12;;;;;;;16.13;14.43;;;20.30;99.90;;;20.72;68.23;95451.59;5034710;28;20480;-61
2023/09/07 03:31:39;;;;;;;21.03;13.57;;;20.30;99.90;;;20.71;68.11;95436.59;5037272;28;20471;-61
2023/09/07 03:34:06;;;;;;;118.57;69.53;;;20.30;99.90;;;20.71;68.38;95449.94;5037998;28;20484;-61
2023/09/07 03:36:33;;;;;;;30.57;20.17;;;20.30;99.90;;;20.71;68.45;95449.94;5034528;28;20486;-61
2023/09/07 03:39:02;;;;;;;18.00;14.17;;;20.30;99.90;;;20.71;68.40;95433.06;5037720;28;20506;-62
2023/09/07 03:41:30;;;;;;;30.00;18.90;;;20.30;99.90;;;20.69;68.48;95446.63;5037371;28;21976;-62
2023/09/07 03:43:58;;;;;;;23.87;18.97;;;20.30;99.90;;;20.68;68.75;95434.28;5030641;28;20532;-60
2023/09/07 03:46:26;;;;;;;25.50;18.53;;;20.30;99.90;;;20.68;68.67;95446.81;5036479;28;20472;-61
2023/09/07 03:48:53;;;;;;;16.83;13.63;;;20.20;99.90;;;20.68;69.17;95441.47;5034285;28;20480;-61
2023/09/07 03:51:20;;;;;;;33.77;14.43;;;20.30;99.90;;;20.66;68.95;95452.34;5032070;28;20489;-61
2023/09/07 03:53:48;;;;;;;14.70;13.03;;;20.30;99.90;;;20.66;68.87;95454.19;5036610;28;20480;-61
2023/09/07 03:56:16;;;;;;;17.30;13.80;;;20.20;99.90;;;20.64;69.22;95462.38;5034580;28;20503;-60
2023/09/07 03:58:43;;;;;;;15.97;13.50;;;20.20;99.90;;;20.62;69.14;95453.72;5033873;28;20596;-60
2023/09/07 04:01:11;;;;;;;32.23;14.60;;;20.20;99.90;;;20.60;69.31;95461.06;5033349;28;20915;-61
2023/09/07 04:03:40;;;;;;;27.23;14.23;;;20.20;99.90;;;20.56;69.77;95465.16;5038547;28;20537;-61
2023/09/07 04:06:07;;;;;;;19.83;14.93;;;20.20;99.90;;;20.54;69.50;95461.81;5033564;28;20820;-61
2023/09/07 04:08:35;;;;;;;17.97;14.67;;;20.20;99.90;;;20.51;69.87;95468.38;5035405;28;20562;-59
2023/09/07 04:11:05;;;;;;;20.93;15.20;;;20.10;99.90;;;20.50;70.03;95473.91;5042092;28;20884;-60
2023/09/07 04:13:33;;;;;;;16.60;14.07;;;20.10;99.90;;;20.49;70.09;95470.41;5035212;28;20471;-61
2023/09/07 04:16:00;;;;;;;23.00;15.00;;;20.10;99.90;;;20.49;70.56;95469.59;5040638;28;20554;-63
2023/09/07 04:18:28;;;;;;;21.50;14.57;;;20.10;99.90;;;20.47;70.75;95463.59;5043190;28;20562;-62
2023/09/07 04:21:05;;;;;;;18.43;13.33;;;20.10;99.90;;;20.46;70.64;95467.28;5034867;28;20476;-62
2023/09/07 04:23:34;;;;;;;28.67;14.60;;;20.10;99.90;;;20.44;70.82;95467.47;5036601;28;20483;-62
2023/09/07 04:26:07;;;;;;;44.70;29.40;;;20.00;99.90;;;20.47;71.12;95472.44;5036485;28;20500;-64
2023/09/07 04:28:36;;;;;;;52.90;26.17;;;20.00;99.90;;;20.47;71.14;95460.94;5040370;28;20566;-62
2023/09/07 04:31:03;;;;;;;18.53;15.17;;;20.10;99.90;;;20.49;70.84;95458.91;5039671;28;20932;-62
2023/09/07 04:33:31;;;;;;;21.03;15.60;;;20.10;99.90;;;20.52;70.97;95469.22;5037821;28;20565;-61
2023/09/07 04:36:08;;;;;;;19.27;14.47;;;20.10;99.90;;;20.54;71.15;95473.38;5041251;28;20484;-62
2023/09/07 04:38:35;;;;;;;15.73;13.50;;;20.10;99.90;;;20.55;71.11;95474.19;5035507;28;20487;-62
2023/09/07 04:41:08;;;;;;;21.80;13.07;;;20.20;99.90;;;20.54;70.80;95472.50;5039164;28;20460;-62
2023/09/07 04:43:37;;;;;;;22.73;14.70;;;20.10;99.90;;;20.54;70.91;95478.72;5035757;28;20574;-62
2023/09/07 04:46:04;;;;;;;20.30;14.03;;;20.10;99.90;;;20.52;71.31;95482.56;5039836;28;20872;-62
2023/09/07 04:48:31;;;;;;;18.23;13.70;;;20.10;99.90;;;20.51;70.93;95486.25;5042588;28;20563;-63
2023/09/07 04:50:59;;;;;;;21.60;15.23;;;20.10;99.90;;;20.50;71.17;95485.44;5042837;28;20483;-62
2023/09/07 04:53:29;;;;;;;24.60;14.73;;;20.10;99.90;;;20.49;71.25;95482.94;5038157;28;20479;-60
2023/09/07 04:55:56;;;;;;;20.63;13.10;;;20.10;99.90;;;20.49;71.08;95490.97;5036865;28;20491;-61
2023/09/07 04:58:23;;;;;;;23.10;13.70;;;20.10;99.90;;;20.47;71.23;95487.66;5025480;28;20565;-63
2023/09/07 05:00:52;;;;;;;17.47;13.60;;;20.10;99.90;;;20.47;71.19;95487.66;5036844;28;20467;-63
2023/09/07 05:03:19;;;;;;;21.80;14.97;;;20.00;99.90;;;20.46;71.40;95492.16;5034879;28;20476;-63
2023/09/07 05:05:47;;;;;;;16.77;14.37;;;20.00;99.90;;;20.45;71.48;95487.84;5040534;28;21049;-61
2023/09/07 05:08:18;;;;;;;17.43;14.77;;;20.10;99.90;;;20.46;71.63;95486.00;5038363;28;20476;-63
2023/09/07 05:10:45;;;;;;;23.13;15.83;;;20.00;99.90;;;20.46;71.94;95488.66;5036173;28;20478;-62
2023/09/07 05:13:13;;;;;;;24.77;16.17;;;20.10;99.90;;;20.51;71.91;95488.91;5032909;28;20457;-61
2023/09/07 05:15:49;;;;;;;18.57;15.93;;;20.10;99.90;;;20.57;71.84;95493.53;5039784;28;20488;-61
2023/09/07 05:18:18;;;;;;;22.90;15.67;;;20.10;99.90;;;20.60;71.85;95488.66;5041182;28;20459;-64
2023/09/07 05:20:45;;;;;;;23.60;15.43;;;20.20;99.90;;;20.64;71.75;95494.44;5035913;28;20487;-64
2023/09/07 05:23:15;;;;;;;24.83;15.33;;;20.20;99.90;;;20.65;71.63;95488.13;5039377;28;20570;-62
2023/09/07 05:25:45;;;;;;;22.83;15.47;;;20.20;99.90;;;20.67;71.54;95496.78;5038551;28;20493;-61
2023/09/07 05:28:13;;;;;;;19.10;14.93;;;20.20;99.90;;;20.70;71.27;95496.41;5035197;28;20651;-60
2023/09/07 05:30:41;;;;;;;17.13;13.67;;;20.30;99.90;;;20.73;71.09;95492.53;5039997;28;20521;-60
2023/09/07 05:33:09;;;;;;;21.33;14.27;;;20.30;99.90;;;20.75;70.65;95491.31;5037740;28;20592;-60
2023/09/07 05:35:37;;;;;;;26.03;14.77;;;20.30;99.90;;;20.77;70.74;95491.97;5037800;28;20562;-63
2023/09/07 05:38:05;;;;;;;25.43;13.63;;;20.40;99.90;;;20.81;70.48;95502.28;5033989;28;20531;-62
2023/09/07 05:40:35;;;;;;;22.03;13.80;;;20.40;99.90;;;20.80;70.31;95495.28;5035086;28;20471;-60
2023/09/07 05:43:03;;;;;;;18.23;13.77;;;20.40;99.90;;;20.78;70.46;95506.97;5038436;28;20451;-60
2023/09/07 05:45:31;;;;;;;24.20;14.00;;;20.40;99.90;;;20.82;70.50;95498.56;5037597;28;20511;-61
2023/09/07 05:47:58;;;;;;;20.57;14.10;;;20.40;99.90;;;20.83;70.37;95494.91;5036037;28;20564;-60
2023/09/07 05:50:26;;;;;;;25.50;13.90;;;20.40;99.90;;;20.87;70.18;95494.34;5038248;28;20483;-62
2023/09/07 05:52:54;;;;;;;15.33;11.70;;;20.40;99.90;;;20.92;70.08;95501.78;5037967;28;20529;-63
2023/09/07 05:55:21;;;;;;;16.33;12.30;;;20.50;99.90;;;20.95;69.69;95496.88;5040958;28;21016;-60
2023/09/07 05:57:50;;;;;;;17.47;12.27;;;20.50;99.90;;;20.99;69.44;95508.06;5034909;28;20492;-60
2023/09/07 06:00:18;;;;;;;15.40;13.17;;;20.60;99.90;;;21.00;68.99;95501.66;5042549;28;20471;-62
2023/09/07 06:02:46;;;;;;;20.10;12.70;;;20.60;99.90;;;20.97;68.60;95503.91;5040844;28;20461;-61
2023/09/07 06:05:14;;;;;;;19.00;12.63;;;20.60;99.90;;;20.97;68.65;95507.38;5038748;28;20865;-61
2023/09/07 06:07:41;;;;;;;29.40;12.70;;;20.60;99.90;;;20.98;68.33;95502.88;5039843;28;20515;-63
2023/09/07 06:10:11;;;;;;;17.20;12.90;;;20.50;99.90;;;21.01;68.44;95503.34;5037796;28;20923;-61
2023/09/07 06:12:38;;;;;;;13.90;10.40;;;20.60;99.90;;;21.04;68.08;95504.81;5038973;28;20917;-59
2023/09/07 06:15:07;;;;;;;14.30;9.53;;;20.60;99.90;;;21.09;67.42;95500.53;5041517;28;21009;-65
2023/09/07 06:17:35;;;;;;;18.53;9.93;;;20.60;99.90;;;21.12;67.18;95500.16;5037994;28;20535;-60
2023/09/07 06:20:02;;;;;;;11.53;9.07;;;20.70;99.90;;;21.21;66.69;95494.66;5039541;28;20476;-63
2023/09/07 06:22:30;;;;;;;17.67;10.17;;;20.80;99.90;;;21.35;66.39;95500.97;5036037;28;20480;-60
2023/09/07 06:24:57;;;;;;;12.13;9.60;;;20.80;99.90;;;21.53;65.79;95505.91;5037239;28;20481;-62
2023/09/07 06:27:26;;;;;;;18.00;10.60;;;21.00;99.90;;;21.74;65.66;95503.22;5035999;28;22277;-62
2023/09/07 06:29:53;;;;;;;23.83;10.73;;;21.20;99.90;;;22.04;64.85;95508.38;5037839;28;20476;-62
2023/09/07 06:32:20;;;;;;;14.30;10.00;;;21.50;99.90;;;22.29;63.88;95505.22;5040588;28;20556;-62
2023/09/07 06:34:48;;;;;;;18.10;10.87;;;21.70;99.90;;;22.51;63.96;95509.53;5040343;28;20476;-64
2023/09/07 06:37:15;;;;;;;17.13;9.97;;;22.00;99.90;;;22.77;63.75;95512.50;5038892;28;20464;-62
2023/09/07 06:39:43;;;;;;;16.53;10.40;;;22.20;99.90;;;23.00;62.63;95514.88;5038990;28;20551;-61
2023/09/07 06:42:11;;;;;;;11.20;8.47;;;22.40;99.90;;;23.24;62.43;95511.66;5036322;28;20555;-62
2023/09/07 06:44:39;;;;;;;22.97;10.30;;;22.70;99.90;;;23.43;61.12;95518.09;5037299;28;20579;-63
2023/09/07 06:47:07;;;;;;;14.83;11.33;;;22.90;99.90;;;23.62;60.67;95508.44;5032971;28;20550;-61
2023/09/07 06:49:34;;;;;;;12.90;10.37;;;23.10;99.90;;;23.82;61.19;95518.34;5041698;28;20472;-62
2023/09/07 06:52:02;;;;;;;18.77;9.93;;;23.30;99.90;;;24.08;60.28;95519.41;5037032;28;20468;-63
2023/09/07 06:54:30;;;;;;;15.90;9.97;;;23.50;99.90;;;24.34;59.52;95522.03;5034233;28;20487;-61
2023/09/07 06:56:58;;;;;;;16.03;9.50;;;23.70;99.90;;;24.57;58.78;95515.41;5037215;28;20977;-59
2023/09/07 06:59:25;;;;;;;16.40;10.70;;;24.00;99.50;;;24.78;57.97;95519.66;5035829;28;20502;-60
2023/09/07 07:01:54;;;;;;;25.83;10.20;;;24.20;99.00;;;25.04;58.00;95517.91;5036979;28;20456;-64
2023/09/07 07:04:21;;;;;;;19.10;9.47;;;24.40;98.70;;;25.20;57.54;95517.38;5034832;28;20560;-62
2023/09/07 07:06:49;;;;;;;13.40;9.80;;;24.70;98.40;;;25.36;57.23;95505.34;5032600;28;20505;-63
2023/09/07 07:09:16;;;;;;;10.00;9.00;;;24.80;97.90;;;25.53;55.24;95507.47;5033124;28;20480;-64
2023/09/07 07:11:43;;;;;;;11.80;8.97;;;24.90;96.70;;;25.71;55.65;95502.16;5040666;28;20487;-64
2023/09/07 07:14:11;;;;;;;11.40;8.60;;;25.10;96.30;;;25.85;54.64;95502.06;5038051;28;20475;-60
2023/09/07 07:16:39;;;;;;;11.70;9.47;;;25.30;95.70;;;25.99;53.75;95509.03;5036381;28;21208;-62
2023/09/07 07:19:07;;;;;;;9.90;8.33;;;25.40;94.70;;;26.13;53.88;95504.34;5039240;28;20475;-63
2023/09/07 07:21:35;;;;;;;11.50;8.67;;;25.60;94.50;;;26.32;53.06;95516.00;5032797;28;20460;-63
2023/09/07 07:24:02;;;;;;;9.50;8.33;;;25.70;93.70;;;26.52;52.68;95512.25;5031539;28;20502;-61
2023/09/07 07:26:29;;;;;;;12.90;8.70;;;25.90;93.20;;;26.75;52.67;95520.53;5034495;28;20525;-60
2023/09/07 07:28:57;;;;;;;8.93;7.67;;;26.10;93.00;;;26.98;52.19;95508.22;5036928;28;20467;-64
2023/09/07 07:31:24;;;;;;;9.40;7.93;;;26.40;92.60;;;27.19;51.13;95515.84;5032608;28;20490;-62
2023/09/07 07:33:51;;;;;;;11.20;9.47;;;26.60;91.20;;;27.36;50.46;95520.63;5037134;28;20481;-63
2023/09/07 07:36:20;;;;;;;13.77;8.53;;;26.80;91.10;;;27.53;49.95;95521.63;5036485;28;20468;-61
2023/09/07 07:38:48;;;;;;;11.77;7.43;;;26.90;90.30;;;27.61;49.66;95525.06;5033746;28;20996;-66
2023/09/07 07:41:15;;;;;;;12.70;9.27;;;27.00;89.60;;;27.58;49.98;95528.22;5031953;28;20483;-64
2023/09/07 07:43:42;;;;;;;11.53;9.23;;;27.00;88.40;;;27.79;49.82;95529.56;5035647;28;20474;-64
2023/09/07 07:46:10;;;;;;;18.60;9.53;;;27.20;88.10;;;28.04;49.45;95521.28;5040782;28;20490;-65
2023/09/07 07:48:37;;;;;;;24.30;7.77;;;27.40;87.60;;;28.21;48.59;95532.22;5036734;28;20480;-63
2023/09/07 07:51:05;;;;;;;9.33;6.80;;;27.60;85.70;;;28.46;48.37;95529.28;5036269;28;20456;-64
2023/09/07 07:53:34;;;;;;;13.13;7.67;;;27.90;84.40;;;28.76;47.25;95522.94;5042685;28;20486;-63
2023/09/07 07:56:02;;;;;;;9.83;8.47;;;28.30;82.90;;;29.15;46.77;95531.28;5043161;28;20481;-64
2023/09/07 07:58:30;;;;;;;8.07;7.27;;;28.70;82.00;;;29.44;45.77;95521.31;5036641;28;20558;-62
2023/09/07 08:00:58;;;;;;;10.47;7.50;;;29.10;79.20;;;29.75;45.09;95524.56;5042166;28;20490;-64
2023/09/07 08:03:26;;;;;;;7.13;6.43;;;29.40;77.50;;;30.03;44.48;95525.63;5044855;28;20217;-64
2023/09/07 08:05:53;;;;;;;14.00;7.33;;;29.70;76.40;;;30.24;44.27;95525.94;5041019;28;20240;-64
2023/09/07 08:08:20;;;;;;;9.83;6.63;;;29.80;74.00;;;30.29;43.27;95529.56;5038937;28;20217;-64
2023/09/07 08:10:49;;;;;;;7.53;6.70;;;29.90;72.00;;;30.18;43.04;95525.84;5036670;28;20615;-63
2023/09/07 08:13:17;;;;;;;9.83;6.77;;;29.90;71.10;;;30.04;43.31;95527.25;5039349;28;20236;-64
2023/09/07 08:15:44;;;;;;;9.50;6.47;;;29.80;70.30;;;29.91;43.27;95522.16;5040146;28;20201;-63
2023/09/07 08:18:11;;;;;;;8.37;6.80;;;29.70;70.00;;;29.92;43.74;95523.81;5035359;28;20220;-60
2023/09/07 08:20:41;;;;;;;7.43;6.63;;;29.70;70.60;;;30.12;43.69;95520.59;5038125;28;20217;-61
2023/09/07 08:23:10;;;;;;;10.03;6.67;;;29.80;70.10;;;30.46;42.69;95520.56;5038334;28;20196;-62
2023/09/07 08:25:39;;;;;;;6.27;5.67;;;30.20;69.00;;;30.67;41.96;95519.78;5039326;28;20308;-64
2023/09/07 08:28:07;;;;;;;10.30;5.40;;;30.50;68.20;;;30.84;40.98;95513.50;5039656;28;20206;-64
2023/09/07 08:30:36;;;;;;;7.73;5.50;;;30.70;66.50;;;30.93;40.95;95512.78;5038098;28;20251;-65
2023/09/07 08:33:06;;;;;;;10.90;6.53;;;30.90;65.30;;;30.94;40.09;95508.19;5044231;28;20229;-64
2023/09/07 08:35:35;;;;;;;9.03;5.60;;;30.90;63.80;;;30.81;39.90;95514.00;5042426;28;20304;-66
2023/09/07 08:38:05;;;;;;;7.80;6.40;;;30.70;62.60;;;30.66;39.65;95518.16;5040048;28;20217;-61
2023/09/07 08:40:35;;;;;;;6.20;4.93;;;30.60;62.80;;;30.66;39.91;95511.91;5042600;28;20787;-64
2023/09/07 08:43:04;;;;;;;8.70;6.10;;;30.40;62.70;;;30.54;39.21;95514.75;5042792;28;20224;-64
2023/09/07 08:45:33;;;;;;;5.03;4.57;;;30.30;62.10;;;30.32;39.65;95512.78;5041424;28;20208;-62
2023/09/07 08:48:01;;;;;;;9.90;5.47;;;30.10;61.50;;;30.11;39.34;95521.66;5038937;28;20315;-64
2023/09/07 08:50:28;;;;;;;13.50;5.27;;;29.80;61.20;;;29.95;39.00;95509.75;5038507;28;20636;-64
2023/09/07 08:52:59;;;;;;;19.47;7.00;;;29.60;61.40;;;29.89;40.38;95508.84;5041119;28;20189;-63
2023/09/07 08:55:26;;;;;;;6.97;5.70;;;29.50;62.00;;;29.85;39.79;95511.22;5040682;28;20216;-63
2023/09/07 08:57:54;;;;;;;8.30;6.60;;;29.40;61.90;;;29.80;40.18;95503.00;5040952;28;20201;-61
2023/09/07 09:00:21;;;;;;;8.93;5.57;;;29.40;62.50;;;29.83;39.86;95507.13;5035025;28;20239;-61
2023/09/07 09:02:50;;;;;;;7.27;5.90;;;29.30;62.40;;;29.87;39.44;95494.72;5036601;28;20220;-62
2023/09/07 09:05:19;;;;;;;6.50;5.30;;;29.30;61.80;;;29.91;39.31;95503.97;5037263;28;20709;-62
2023/09/07 09:07:46;;;;;;;7.03;5.47;;;29.30;61.80;;;29.86;39.57;95506.63;5034492;28;20752;-62
2023/09/07 09:10:13;;;;;;;9.07;4.67;;;29.30;61.40;;;29.64;39.84;95507.31;5038428;28;20923;-61
2023/09/07 09:12:47;;;;;;;10.80;4.90;;;29.20;61.20;;;29.41;39.30;95502.84;5041178;28;20327;-62
2023/09/07 09:15:14;;;;;;;8.03;5.87;;;29.00;61.00;;;29.32;39.83;95502.38;5040929;28;20232;-60
2023/09/07 09:17:41;;;;;;;6.90;5.10;;;28.80;61.50;;;29.22;39.28;95510.34;5035568;28;20274;-60
2023/09/07 09:20:23;;;;;;;6.40;5.47;;;28.70;61.30;;;29.05;38.16;95498.56;5039748;28;20615;-61
2023/09/07 09:22:53;;;;;;;5.73;5.10;;;28.60;59.80;;;28.84;40.31;95503.59;5038305;28;20205;-60
2023/09/07 09:25:20;;;;;;;5.33;4.87;;;28.40;61.10;;;28.72;39.94;95505.50;5031581;28;20697;-61
2023/09/07 09:27:48;;;;;;;8.43;5.83;;;28.20;61.80;;;28.71;40.21;95493.06;5038010;28;20301;-62
2023/09/07 09:30:16;;;;;;;5.70;5.13;;;28.10;62.20;;;28.79;39.80;95500.78;5037158;28;20478;-61
2023/09/07 09:32:44;;;;;;;10.20;5.50;;;28.20;62.20;;;28.89;39.84;95497.47;5034974;28;20222;-61
2023/09/07 09:35:11;;;;;;;8.20;5.00;;;28.30;61.00;;;29.02;39.93;95494.47;5036519;28;20519;-64
2023/09/07 09:37:48;;;;;;;13.47;5.40;;;28.40;61.80;;;29.16;39.77;95486.91;5036665;28;20341;-63
2023/09/07 09:40:16;;;;;;;5.50;5.10;;;28.50;61.10;;;29.23;38.95;95487.59;5041655;28;20216;-63
2023/09/07 09:42:44;;;;;;;9.97;5.40;;;28.60;60.50;;;29.21;39.55;95480.78;5038662;28;20224;-62
2023/09/07 09:45:12;;;;;;;9.90;5.13;;;28.60;61.10;;;29.12;39.88;95477.59;5031545;28;21401;-62
2023/09/07 09:47:41;;;;;;;7.30;5.13;;;28.50;60.40;;;29.03;39.75;95479.03;5045988;28;20650;-62
2023/09/07 09:50:11;;;;;;;7.33;4.67;;;28.40;60.40;;;28.92;39.93;95478.88;5030301;28;20616;-61
2023/09/07 09:52:38;;;;;;;6.23;3.90;;;28.40;60.80;;;28.77;38.99;95478.56;5034670;28;20595;-62
2023/09/07 09:55:12;;;;;;;6.83;5.30;;;28.30;60.10;;;28.59;38.62;95479.53;5036914;28;21250;-62
2023/09/07 09:57:40;;;;;;;8.60;4.90;;;28.10;59.60;;;28.46;37.99;95475.16;5034690;28;21030;-63
2023/09/07 10:00:19;;;;;;;7.67;4.87;;;27.90;58.40;;;28.25;38.34;95469.28;5043160;28;20308;-62
2023/09/07 10:02:59;;;;;;;10.53;4.80;;;27.80;58.60;;;28.10;39.60;95470.84;5033481;28;20546;-63
2023/09/07 10:05:27;;;;;;;6.13;5.23;;;27.60;60.10;;;28.00;39.18;95469.53;5036009;28;20932;-63
2023/09/07 10:08:00;;;;;;;10.20;4.57;;;27.50;60.10;;;27.89;40.12;95463.03;5035395;28;20309;-63
2023/09/07 10:10:35;;;;;;;9.20;5.73;;;27.40;60.20;;;27.78;39.77;95463.84;5030825;28;20232;-61
2023/09/07 10:13:02;;;;;;;11.53;8.23;;;27.20;60.50;;;27.66;40.12;95471.13;5033725;28;20596;-62
2023/09/07 10:15:29;;;;;;;6.43;5.17;;;27.20;61.00;;;27.57;40.18;95457.13;5038006;28;20476;-63
2023/09/07 10:18:12;;;;;;;5.63;4.97;;;27.00;61.30;;;27.47;39.71;95456.88;5038029;28;20863;-60